Long Lake, NY

7:55 AM EST on December 09, 2016 (GMT -0500)
Adirondack Acres W2CJS | | Change Station

Elev 1650 ft 43.98 °N, 74.43 °W | Updated 7 seconds ago

Overcast
Overcast
17.8 °F
Feels Like 18 °F
N
1.0
Wind Variable Wind from NNE
Gusts 4.0 mph

Today
High -- | Low -- °F
--% Chance of Precip.
Yesterday
High -- | Low -- °F
Precip. -- in
Pressure 29.99 in
Visibility 1.2 miles
Clouds Mostly Cloudy 1600 ft
Overcast 2300 ft
Windchill 18 °F
Dew Point 15 °F
Humidity 87%
Rainfall 0.00 in
Snow Depth Not available.
7:20 AM 4:19 PM
Waxing Gibbous, 73% visible
METAR KSLK 091251Z AUTO 29006KT 1 1/4SM -SN BKN016 OVC023 M08/M12 A2990 RMK AO2 SLP153 P0000 T10831117
Pressure 29.99 in
Visibility 1.2 miles
Clouds Mostly Cloudy 1600 ft
Overcast 2300 ft
Windchill 18 °F
Dew Point 15 °F
Humidity 87%
Rainfall 0.00 in
Snow Depth Not available.
7:20 AM 4:19 PM
Waxing Gibbous, 73% visible
METAR KSLK 091251Z AUTO 29006KT 1 1/4SM -SN BKN016 OVC023 M08/M12 A2990 RMK AO2 SLP153 P0000 T10831117

10-Day Weather Forecast

Almanac

Astronomy

Dec. 09, 2016 Rise Set
Actual Time
Civil Twilight
Nautical Twilight
Astronomical Twilight
Moon
Length of Visible Light
Length of Day
Tomorrow will be .
, % of the Moon is Illuminated

Today's Extremes

State Highs State Lows

Community

WunderPhotos

Upload Photos

1,956,407 photos uploaded!

WunderBlog® & News

Nearby

Air Quality

  Air Quality AQ Index Pollutant
Not available.

Snow Depth

Station Depth Elevation

Earthquake Activity

City Distance Mag. Time & Date
Minimum magnitude displayed is 2.5.

Coastal Water Temperatures

Place Temperature

Stations

Nearby Weather Stations

Station Location Temp. Windchill Dew Point Humidity Wind Precip. Elev Updated Type
                   

Watches & Warnings

There are currently no watches in effect.